sensor_id;sensor_type;location;lat;lon;timestamp;P1;durP1;ratioP1;P2;durP2;ratioP2
5752;SDS011;2901;42.140;24.760;2023-04-03T00:00:20;2.20;;;1.20;;
5752;SDS011;2901;42.140;24.760;2023-04-03T00:02:46;3.90;;;1.33;;
5752;SDS011;2901;42.140;24.760;2023-04-03T00:05:11;3.08;;;0.98;;
5752;SDS011;2901;42.140;24.760;2023-04-03T00:07:36;1.48;;;1.17;;
5752;SDS011;2901;42.140;24.760;2023-04-03T00:10:02;1.25;;;1.15;;
5752;SDS011;2901;42.140;24.760;2023-04-03T00:12:28;0.88;;;0.77;;
5752;SDS011;2901;42.140;24.760;2023-04-03T00:14:53;3.75;;;0.88;;
5752;SDS011;2901;42.140;24.760;2023-04-03T00:17:18;1.27;;;0.80;;
5752;SDS011;2901;42.140;24.760;2023-04-03T00:19:44;1.02;;;1.02;;
5752;SDS011;2901;42.140;24.760;2023-04-03T00:22:09;0.60;;;0.60;;
5752;SDS011;2901;42.140;24.760;2023-04-03T00:24:35;0.82;;;0.82;;
5752;SDS011;2901;42.140;24.760;2023-04-03T00:27:00;0.90;;;0.90;;
5752;SDS011;2901;42.140;24.760;2023-04-03T00:29:26;0.93;;;0.93;;
5752;SDS011;2901;42.140;24.760;2023-04-03T00:31:51;0.70;;;0.70;;
5752;SDS011;2901;42.140;24.760;2023-04-03T00:34:16;1.90;;;0.90;;
5752;SDS011;2901;42.140;24.760;2023-04-03T00:36:42;1.92;;;0.77;;
5752;SDS011;2901;42.140;24.760;2023-04-03T00:39:07;0.50;;;0.50;;
5752;SDS011;2901;42.140;24.760;2023-04-03T00:41:32;0.93;;;0.93;;
5752;SDS011;2901;42.140;24.760;2023-04-03T00:43:58;1.02;;;1.02;;
5752;SDS011;2901;42.140;24.760;2023-04-03T00:46:23;1.00;;;1.00;;
5752;SDS011;2901;42.140;24.760;2023-04-03T00:48:49;1.40;;;0.52;;
5752;SDS011;2901;42.140;24.760;2023-04-03T00:51:20;1.15;;;1.05;;
5752;SDS011;2901;42.140;24.760;2023-04-03T00:53:50;1.00;;;1.00;;
5752;SDS011;2901;42.140;24.760;2023-04-03T00:56:23;1.17;;;1.08;;
5752;SDS011;2901;42.140;24.760;2023-04-03T00:58:52;1.48;;;0.82;;
5752;SDS011;2901;42.140;24.760;2023-04-03T01:01:22;1.23;;;1.10;;
5752;SDS011;2901;42.140;24.760;2023-04-03T01:03:50;1.35;;;1.02;;
5752;SDS011;2901;42.140;24.760;2023-04-03T01:06:16;1.10;;;1.00;;
5752;SDS011;2901;42.140;24.760;2023-04-03T01:08:47;1.70;;;1.00;;
5752;SDS011;2901;42.140;24.760;2023-04-03T01:11:14;0.93;;;0.93;;
5752;SDS011;2901;42.140;24.760;2023-04-03T01:13:40;1.23;;;1.23;;
5752;SDS011;2901;42.140;24.760;2023-04-03T01:16:06;2.55;;;1.20;;
5752;SDS011;2901;42.140;24.760;2023-04-03T01:18:32;1.05;;;1.02;;
5752;SDS011;2901;42.140;24.760;2023-04-03T01:26:18;0.70;;;0.70;;
5752;SDS011;2901;42.140;24.760;2023-04-03T01:28:43;1.05;;;1.05;;
5752;SDS011;2901;42.140;24.760;2023-04-03T01:31:15;1.83;;;0.93;;
5752;SDS011;2901;42.140;24.760;2023-04-03T01:33:44;2.47;;;1.38;;
5752;SDS011;2901;42.140;24.760;2023-04-03T01:36:11;1.10;;;1.00;;
5752;SDS011;2901;42.140;24.760;2023-04-03T01:38:40;1.38;;;1.00;;
5752;SDS011;2901;42.140;24.760;2023-04-03T01:41:06;3.53;;;1.38;;
5752;SDS011;2901;42.140;24.760;2023-04-03T01:43:31;1.02;;;0.95;;
5752;SDS011;2901;42.140;24.760;2023-04-03T01:45:57;1.38;;;1.27;;
5752;SDS011;2901;42.140;24.760;2023-04-03T01:48:22;1.50;;;0.90;;
5752;SDS011;2901;42.140;24.760;2023-04-03T01:50:47;1.60;;;1.50;;
5752;SDS011;2901;42.140;24.760;2023-04-03T01:53:13;0.95;;;0.90;;
5752;SDS011;2901;42.140;24.760;2023-04-03T01:55:39;0.82;;;0.82;;
5752;SDS011;2901;42.140;24.760;2023-04-03T01:58:04;0.70;;;0.70;;
5752;SDS011;2901;42.140;24.760;2023-04-03T02:00:29;0.70;;;0.70;;
5752;SDS011;2901;42.140;24.760;2023-04-03T02:02:55;1.88;;;1.05;;
5752;SDS011;2901;42.140;24.760;2023-04-03T02:05:21;1.13;;;1.02;;
5752;SDS011;2901;42.140;24.760;2023-04-03T02:07:47;1.25;;;1.20;;
5752;SDS011;2901;42.140;24.760;2023-04-03T02:10:12;1.20;;;1.17;;
5752;SDS011;2901;42.140;24.760;2023-04-03T02:12:38;1.90;;;1.80;;
5752;SDS011;2901;42.140;24.760;2023-04-03T02:15:03;2.88;;;2.00;;
5752;SDS011;2901;42.140;24.760;2023-04-03T02:17:29;2.25;;;2.15;;
5752;SDS011;2901;42.140;24.760;2023-04-03T02:19:55;2.55;;;1.88;;
5752;SDS011;2901;42.140;24.760;2023-04-03T02:22:20;2.28;;;2.08;;
5752;SDS011;2901;42.140;24.760;2023-04-03T02:24:46;7.30;;;1.67;;
5752;SDS011;2901;42.140;24.760;2023-04-03T02:27:11;2.25;;;1.75;;
5752;SDS011;2901;42.140;24.760;2023-04-03T02:29:37;1.48;;;1.38;;
5752;SDS011;2901;42.140;24.760;2023-04-03T02:32:02;1.80;;;1.70;;
5752;SDS011;2901;42.140;24.760;2023-04-03T02:34:27;1.65;;;1.50;;
5752;SDS011;2901;42.140;24.760;2023-04-03T02:36:53;1.20;;;1.10;;
5752;SDS011;2901;42.140;24.760;2023-04-03T02:39:18;3.70;;;1.80;;
5752;SDS011;2901;42.140;24.760;2023-04-03T02:41:44;1.63;;;1.52;;
5752;SDS011;2901;42.140;24.760;2023-04-03T02:44:09;1.40;;;1.30;;
5752;SDS011;2901;42.140;24.760;2023-04-03T02:46:35;1.60;;;1.50;;
5752;SDS011;2901;42.140;24.760;2023-04-03T02:49:01;2.38;;;1.63;;
5752;SDS011;2901;42.140;24.760;2023-04-03T02:51:27;1.55;;;1.38;;
5752;SDS011;2901;42.140;24.760;2023-04-03T02:53:52;1.73;;;1.63;;
5752;SDS011;2901;42.140;24.760;2023-04-03T02:56:17;1.60;;;1.50;;
5752;SDS011;2901;42.140;24.760;2023-04-03T02:58:44;2.13;;;2.03;;
5752;SDS011;2901;42.140;24.760;2023-04-03T03:01:10;1.90;;;1.80;;
5752;SDS011;2901;42.140;24.760;2023-04-03T03:03:35;4.03;;;1.85;;
5752;SDS011;2901;42.140;24.760;2023-04-03T03:06:11;6.38;;;1.95;;
5752;SDS011;2901;42.140;24.760;2023-04-03T03:08:39;4.80;;;2.63;;
5752;SDS011;2901;42.140;24.760;2023-04-03T03:11:05;4.80;;;3.00;;
5752;SDS011;2901;42.140;24.760;2023-04-03T03:13:31;5.18;;;2.58;;
5752;SDS011;2901;42.140;24.760;2023-04-03T03:15:57;4.80;;;2.55;;
5752;SDS011;2901;42.140;24.760;2023-04-03T03:18:22;3.08;;;2.83;;
5752;SDS011;2901;42.140;24.760;2023-04-03T03:20:54;10.98;;;2.88;;
5752;SDS011;2901;42.140;24.760;2023-04-03T03:23:22;4.43;;;2.95;;
5752;SDS011;2901;42.140;24.760;2023-04-03T03:25:53;3.97;;;2.88;;
5752;SDS011;2901;42.140;24.760;2023-04-03T03:28:20;12.07;;;2.80;;
5752;SDS011;2901;42.140;24.760;2023-04-03T03:30:45;4.05;;;3.10;;
5752;SDS011;2901;42.140;24.760;2023-04-03T03:33:11;5.85;;;2.50;;
5752;SDS011;2901;42.140;24.760;2023-04-03T03:35:36;3.28;;;2.95;;
5752;SDS011;2901;42.140;24.760;2023-04-03T03:38:02;3.08;;;2.78;;
5752;SDS011;2901;42.140;24.760;2023-04-03T03:40:27;9.57;;;3.60;;
5752;SDS011;2901;42.140;24.760;2023-04-03T03:42:53;7.75;;;3.08;;
5752;SDS011;2901;42.140;24.760;2023-04-03T03:45:18;14.45;;;3.47;;
5752;SDS011;2901;42.140;24.760;2023-04-03T03:47:43;3.33;;;2.85;;
5752;SDS011;2901;42.140;24.760;2023-04-03T03:50:09;10.13;;;6.88;;
5752;SDS011;2901;42.140;24.760;2023-04-03T03:52:35;6.03;;;4.05;;
5752;SDS011;2901;42.140;24.760;2023-04-03T03:55:00;12.13;;;5.35;;
5752;SDS011;2901;42.140;24.760;2023-04-03T03:57:26;10.70;;;5.05;;
5752;SDS011;2901;42.140;24.760;2023-04-03T03:59:53;8.48;;;3.72;;
5752;SDS011;2901;42.140;24.760;2023-04-03T04:02:19;11.00;;;4.57;;
5752;SDS011;2901;42.140;24.760;2023-04-03T04:04:44;15.95;;;6.18;;
5752;SDS011;2901;42.140;24.760;2023-04-03T04:07:10;9.68;;;4.90;;
5752;SDS011;2901;42.140;24.760;2023-04-03T04:09:36;10.30;;;5.32;;
5752;SDS011;2901;42.140;24.760;2023-04-03T04:12:02;15.93;;;5.50;;
5752;SDS011;2901;42.140;24.760;2023-04-03T04:14:27;10.40;;;5.53;;
5752;SDS011;2901;42.140;24.760;2023-04-03T04:16:52;9.57;;;4.85;;
5752;SDS011;2901;42.140;24.760;2023-04-03T04:19:18;10.77;;;5.13;;
5752;SDS011;2901;42.140;24.760;2023-04-03T04:21:43;8.60;;;4.50;;
5752;SDS011;2901;42.140;24.760;2023-04-03T04:24:08;7.57;;;4.50;;
5752;SDS011;2901;42.140;24.760;2023-04-03T04:26:34;6.63;;;4.25;;
5752;SDS011;2901;42.140;24.760;2023-04-03T04:28:59;11.05;;;4.68;;
5752;SDS011;2901;42.140;24.760;2023-04-03T04:31:25;4.97;;;4.05;;
5752;SDS011;2901;42.140;24.760;2023-04-03T04:33:50;9.10;;;4.25;;
5752;SDS011;2901;42.140;24.760;2023-04-03T04:36:16;15.80;;;7.15;;
5752;SDS011;2901;42.140;24.760;2023-04-03T04:38:41;11.13;;;5.60;;
5752;SDS011;2901;42.140;24.760;2023-04-03T04:41:07;15.55;;;5.38;;
5752;SDS011;2901;42.140;24.760;2023-04-03T04:43:32;15.73;;;6.07;;
5752;SDS011;2901;42.140;24.760;2023-04-03T04:46:02;24.08;;;6.70;;
5752;SDS011;2901;42.140;24.760;2023-04-03T04:48:29;25.95;;;6.15;;
5752;SDS011;2901;42.140;24.760;2023-04-03T04:50:55;10.70;;;5.00;;
5752;SDS011;2901;42.140;24.760;2023-04-03T04:53:20;14.90;;;4.80;;
5752;SDS011;2901;42.140;24.760;2023-04-03T04:55:46;19.70;;;4.85;;
5752;SDS011;2901;42.140;24.760;2023-04-03T04:58:11;16.95;;;5.38;;
5752;SDS011;2901;42.140;24.760;2023-04-03T05:00:36;16.88;;;5.53;;
5752;SDS011;2901;42.140;24.760;2023-04-03T05:03:02;8.40;;;5.13;;
5752;SDS011;2901;42.140;24.760;2023-04-03T05:05:27;9.30;;;5.05;;
5752;SDS011;2901;42.140;24.760;2023-04-03T05:07:53;8.60;;;5.53;;
5752;SDS011;2901;42.140;24.760;2023-04-03T05:10:18;13.02;;;7.78;;
5752;SDS011;2901;42.140;24.760;2023-04-03T05:12:43;19.33;;;9.40;;
5752;SDS011;2901;42.140;24.760;2023-04-03T05:15:09;17.73;;;10.88;;
5752;SDS011;2901;42.140;24.760;2023-04-03T05:17:34;10.90;;;8.30;;
5752;SDS011;2901;42.140;24.760;2023-04-03T05:20:00;29.58;;;11.43;;
5752;SDS011;2901;42.140;24.760;2023-04-03T05:22:25;19.25;;;10.77;;
5752;SDS011;2901;42.140;24.760;2023-04-03T05:24:51;20.73;;;9.77;;
5752;SDS011;2901;42.140;24.760;2023-04-03T05:27:16;23.55;;;10.07;;
5752;SDS011;2901;42.140;24.760;2023-04-03T05:29:41;14.15;;;9.05;;
5752;SDS011;2901;42.140;24.760;2023-04-03T05:32:08;18.85;;;7.65;;
5752;SDS011;2901;42.140;24.760;2023-04-03T05:34:34;13.52;;;7.60;;
5752;SDS011;2901;42.140;24.760;2023-04-03T05:37:00;9.93;;;8.75;;
5752;SDS011;2901;42.140;24.760;2023-04-03T05:39:28;10.02;;;8.07;;
5752;SDS011;2901;42.140;24.760;2023-04-03T05:41:53;17.65;;;6.30;;
5752;SDS011;2901;42.140;24.760;2023-04-03T05:44:19;7.97;;;7.18;;
5752;SDS011;2901;42.140;24.760;2023-04-03T05:46:44;5.97;;;5.38;;
5752;SDS011;2901;42.140;24.760;2023-04-03T05:49:10;16.15;;;9.15;;
5752;SDS011;2901;42.140;24.760;2023-04-03T05:51:36;11.35;;;6.45;;
5752;SDS011;2901;42.140;24.760;2023-04-03T05:54:04;17.35;;;6.18;;
5752;SDS011;2901;42.140;24.760;2023-04-03T05:56:34;10.77;;;6.85;;
5752;SDS011;2901;42.140;24.760;2023-04-03T05:59:00;7.70;;;6.00;;
5752;SDS011;2901;42.140;24.760;2023-04-03T06:01:25;12.93;;;6.32;;
5752;SDS011;2901;42.140;24.760;2023-04-03T06:03:51;13.27;;;5.75;;
5752;SDS011;2901;42.140;24.760;2023-04-03T06:06:16;11.68;;;6.22;;
5752;SDS011;2901;42.140;24.760;2023-04-03T06:08:42;16.00;;;6.43;;
5752;SDS011;2901;42.140;24.760;2023-04-03T06:11:08;14.20;;;6.72;;
5752;SDS011;2901;42.140;24.760;2023-04-03T06:13:34;15.40;;;7.55;;
5752;SDS011;2901;42.140;24.760;2023-04-03T06:16:00;13.25;;;6.50;;
5752;SDS011;2901;42.140;24.760;2023-04-03T06:18:25;24.67;;;8.63;;
5752;SDS011;2901;42.140;24.760;2023-04-03T06:20:51;20.70;;;9.98;;
5752;SDS011;2901;42.140;24.760;2023-04-03T06:23:17;20.80;;;10.63;;
5752;SDS011;2901;42.140;24.760;2023-04-03T06:25:42;23.88;;;10.90;;
5752;SDS011;2901;42.140;24.760;2023-04-03T06:28:08;23.92;;;11.07;;
5752;SDS011;2901;42.140;24.760;2023-04-03T06:30:35;27.85;;;11.93;;
5752;SDS011;2901;42.140;24.760;2023-04-03T06:33:01;30.88;;;11.15;;
5752;SDS011;2901;42.140;24.760;2023-04-03T06:35:27;27.13;;;10.70;;
5752;SDS011;2901;42.140;24.760;2023-04-03T06:37:53;17.48;;;10.45;;
5752;SDS011;2901;42.140;24.760;2023-04-03T06:40:20;21.67;;;9.27;;
5752;SDS011;2901;42.140;24.760;2023-04-03T06:42:48;23.33;;;8.30;;
5752;SDS011;2901;42.140;24.760;2023-04-03T06:45:14;16.30;;;8.50;;
5752;SDS011;2901;42.140;24.760;2023-04-03T06:47:39;16.35;;;7.78;;
5752;SDS011;2901;42.140;24.760;2023-04-03T06:50:05;14.18;;;7.13;;
5752;SDS011;2901;42.140;24.760;2023-04-03T06:52:31;14.07;;;6.95;;
5752;SDS011;2901;42.140;24.760;2023-04-03T06:54:57;8.82;;;5.20;;
5752;SDS011;2901;42.140;24.760;2023-04-03T06:57:24;12.82;;;4.82;;
5752;SDS011;2901;42.140;24.760;2023-04-03T06:59:50;6.13;;;3.00;;
5752;SDS011;2901;42.140;24.760;2023-04-03T07:02:16;4.43;;;3.28;;
5752;SDS011;2901;42.140;24.760;2023-04-03T07:04:42;5.10;;;3.63;;
5752;SDS011;2901;42.140;24.760;2023-04-03T07:07:07;3.42;;;3.13;;
5752;SDS011;2901;42.140;24.760;2023-04-03T07:09:33;6.45;;;3.47;;
5752;SDS011;2901;42.140;24.760;2023-04-03T07:11:59;3.35;;;3.05;;
5752;SDS011;2901;42.140;24.760;2023-04-03T07:14:24;3.72;;;2.80;;
5752;SDS011;2901;42.140;24.760;2023-04-03T07:16:50;2.55;;;2.30;;
5752;SDS011;2901;42.140;24.760;2023-04-03T07:19:15;3.15;;;2.67;;
5752;SDS011;2901;42.140;24.760;2023-04-03T07:21:40;5.32;;;2.55;;
5752;SDS011;2901;42.140;24.760;2023-04-03T07:24:07;9.15;;;2.25;;
5752;SDS011;2901;42.140;24.760;2023-04-03T07:26:32;2.35;;;1.88;;
5752;SDS011;2901;42.140;24.760;2023-04-03T07:28:57;9.55;;;3.10;;
5752;SDS011;2901;42.140;24.760;2023-04-03T07:31:23;3.25;;;2.88;;
5752;SDS011;2901;42.140;24.760;2023-04-03T07:33:48;4.32;;;2.80;;
5752;SDS011;2901;42.140;24.760;2023-04-03T07:36:15;3.53;;;3.03;;
5752;SDS011;2901;42.140;24.760;2023-04-03T07:38:42;2.85;;;2.65;;
5752;SDS011;2901;42.140;24.760;2023-04-03T07:41:10;4.78;;;3.13;;
5752;SDS011;2901;42.140;24.760;2023-04-03T07:43:40;2.85;;;2.70;;
5752;SDS011;2901;42.140;24.760;2023-04-03T07:46:05;7.18;;;3.03;;
5752;SDS011;2901;42.140;24.760;2023-04-03T07:48:31;2.05;;;1.85;;
5752;SDS011;2901;42.140;24.760;2023-04-03T07:50:59;2.33;;;2.08;;
5752;SDS011;2901;42.140;24.760;2023-04-03T07:53:26;2.00;;;1.90;;
5752;SDS011;2901;42.140;24.760;2023-04-03T07:55:52;6.70;;;2.33;;
5752;SDS011;2901;42.140;24.760;2023-04-03T07:58:20;1.50;;;1.40;;
5752;SDS011;2901;42.140;24.760;2023-04-03T08:00:46;2.60;;;2.10;;
5752;SDS011;2901;42.140;24.760;2023-04-03T08:03:12;5.35;;;2.95;;
5752;SDS011;2901;42.140;24.760;2023-04-03T08:05:42;4.35;;;3.55;;
5752;SDS011;2901;42.140;24.760;2023-04-03T08:08:12;3.55;;;3.30;;
5752;SDS011;2901;42.140;24.760;2023-04-03T08:10:40;3.20;;;2.90;;
5752;SDS011;2901;42.140;24.760;2023-04-03T08:13:06;16.52;;;12.77;;
5752;SDS011;2901;42.140;24.760;2023-04-03T08:15:32;10.13;;;3.80;;
5752;SDS011;2901;42.140;24.760;2023-04-03T08:17:58;6.07;;;3.88;;
5752;SDS011;2901;42.140;24.760;2023-04-03T08:20:25;9.07;;;4.63;;
5752;SDS011;2901;42.140;24.760;2023-04-03T08:22:51;5.55;;;3.58;;
5752;SDS011;2901;42.140;24.760;2023-04-03T08:25:17;6.18;;;4.35;;
5752;SDS011;2901;42.140;24.760;2023-04-03T08:27:43;10.10;;;6.18;;
5752;SDS011;2901;42.140;24.760;2023-04-03T08:30:09;8.55;;;5.65;;
5752;SDS011;2901;42.140;24.760;2023-04-03T08:32:35;14.90;;;5.50;;
5752;SDS011;2901;42.140;24.760;2023-04-03T08:35:02;5.38;;;4.85;;
5752;SDS011;2901;42.140;24.760;2023-04-03T08:37:28;6.45;;;4.32;;
5752;SDS011;2901;42.140;24.760;2023-04-03T08:39:53;5.53;;;4.70;;
5752;SDS011;2901;42.140;24.760;2023-04-03T08:48:12;4.80;;;3.55;;
5752;SDS011;2901;42.140;24.760;2023-04-03T08:51:08;5.22;;;4.07;;
5752;SDS011;2901;42.140;24.760;2023-04-03T08:53:41;6.88;;;4.35;;
5752;SDS011;2901;42.140;24.760;2023-04-03T08:56:10;5.47;;;3.05;;
5752;SDS011;2901;42.140;24.760;2023-04-03T08:58:55;6.68;;;4.90;;
5752;SDS011;2901;42.140;24.760;2023-04-03T09:01:26;5.47;;;4.47;;
5752;SDS011;2901;42.140;24.760;2023-04-03T09:03:58;5.05;;;3.80;;
5752;SDS011;2901;42.140;24.760;2023-04-03T09:06:26;3.25;;;2.95;;
5752;SDS011;2901;42.140;24.760;2023-04-03T09:12:04;5.72;;;3.38;;
5752;SDS011;2901;42.140;24.760;2023-04-03T09:19:57;5.70;;;4.50;;
5752;SDS011;2901;42.140;24.760;2023-04-03T09:22:28;10.05;;;5.18;;
5752;SDS011;2901;42.140;24.760;2023-04-03T09:25:05;4.82;;;3.95;;
5752;SDS011;2901;42.140;24.760;2023-04-03T09:27:38;6.53;;;3.13;;
5752;SDS011;2901;42.140;24.760;2023-04-03T09:30:03;2.47;;;2.30;;
5752;SDS011;2901;42.140;24.760;2023-04-03T09:32:35;11.18;;;2.80;;
5752;SDS011;2901;42.140;24.760;2023-04-03T09:35:10;4.75;;;3.25;;
5752;SDS011;2901;42.140;24.760;2023-04-03T09:37:47;2.25;;;1.80;;
5752;SDS011;2901;42.140;24.760;2023-04-03T09:42:53;2.78;;;2.10;;
5752;SDS011;2901;42.140;24.760;2023-04-03T09:45:42;7.07;;;2.80;;
5752;SDS011;2901;42.140;24.760;2023-04-03T09:48:09;4.35;;;2.70;;
5752;SDS011;2901;42.140;24.760;2023-04-03T09:51:03;4.35;;;2.90;;
5752;SDS011;2901;42.140;24.760;2023-04-03T09:53:39;4.65;;;2.55;;
5752;SDS011;2901;42.140;24.760;2023-04-03T10:01:25;5.25;;;1.70;;
5752;SDS011;2901;42.140;24.760;2023-04-03T10:04:06;3.30;;;2.30;;
5752;SDS011;2901;42.140;24.760;2023-04-03T10:06:33;4.28;;;2.33;;
5752;SDS011;2901;42.140;24.760;2023-04-03T10:09:06;7.07;;;2.90;;
5752;SDS011;2901;42.140;24.760;2023-04-03T10:12:07;6.55;;;3.08;;
5752;SDS011;2901;42.140;24.760;2023-04-03T10:14:58;2.80;;;2.60;;
5752;SDS011;2901;42.140;24.760;2023-04-03T10:17:26;2.72;;;2.50;;
5752;SDS011;2901;42.140;24.760;2023-04-03T10:20:32;5.07;;;2.20;;
5752;SDS011;2901;42.140;24.760;2023-04-03T10:23:05;3.40;;;3.10;;
5752;SDS011;2901;42.140;24.760;2023-04-03T10:31:18;3.72;;;2.60;;
5752;SDS011;2901;42.140;24.760;2023-04-03T10:53:45;3.67;;;3.38;;
5752;SDS011;2901;42.140;24.760;2023-04-03T11:01:52;3.70;;;3.40;;
5752;SDS011;2901;42.140;24.760;2023-04-03T11:04:20;4.75;;;4.45;;
5752;SDS011;2901;42.140;24.760;2023-04-03T11:06:53;4.28;;;3.67;;
5752;SDS011;2901;42.140;24.760;2023-04-03T11:09:36;3.28;;;3.05;;
5752;SDS011;2901;42.140;24.760;2023-04-03T11:12:14;3.70;;;3.40;;
5752;SDS011;2901;42.140;24.760;2023-04-03T11:14:44;4.10;;;3.72;;
5752;SDS011;2901;42.140;24.760;2023-04-03T11:22:25;3.95;;;3.65;;
5752;SDS011;2901;42.140;24.760;2023-04-03T11:27:52;2.90;;;2.70;;
5752;SDS011;2901;42.140;24.760;2023-04-03T11:35:37;6.30;;;2.80;;
5752;SDS011;2901;42.140;24.760;2023-04-03T11:38:22;3.55;;;2.78;;
5752;SDS011;2901;42.140;24.760;2023-04-03T11:40:51;2.90;;;2.70;;
5752;SDS011;2901;42.140;24.760;2023-04-03T11:45:52;2.78;;;2.58;;
5752;SDS011;2901;42.140;24.760;2023-04-03T11:50:58;3.47;;;3.25;;
5752;SDS011;2901;42.140;24.760;2023-04-03T12:00:56;3.72;;;2.22;;
5752;SDS011;2901;42.140;24.760;2023-04-03T12:03:33;3.17;;;2.97;;
5752;SDS011;2901;42.140;24.760;2023-04-03T12:13:34;4.32;;;4.00;;
5752;SDS011;2901;42.140;24.760;2023-04-03T12:16:03;4.13;;;3.53;;
5752;SDS011;2901;42.140;24.760;2023-04-03T12:18:41;3.83;;;3.63;;
5752;SDS011;2901;42.140;24.760;2023-04-03T12:26:26;6.38;;;4.43;;
5752;SDS011;2901;42.140;24.760;2023-04-03T12:28:55;4.40;;;4.03;;
5752;SDS011;2901;42.140;24.760;2023-04-03T12:31:21;5.30;;;4.88;;
5752;SDS011;2901;42.140;24.760;2023-04-03T12:34:01;6.72;;;5.90;;
5752;SDS011;2901;42.140;24.760;2023-04-03T12:36:45;4.45;;;4.25;;
5752;SDS011;2901;42.140;24.760;2023-04-03T12:44:50;6.05;;;5.53;;
5752;SDS011;2901;42.140;24.760;2023-04-03T12:47:28;10.50;;;5.72;;
5752;SDS011;2901;42.140;24.760;2023-04-03T12:49:59;8.85;;;6.30;;
5752;SDS011;2901;42.140;24.760;2023-04-03T12:52:50;6.20;;;5.68;;
5752;SDS011;2901;42.140;24.760;2023-04-03T12:55:18;8.90;;;6.45;;
5752;SDS011;2901;42.140;24.760;2023-04-03T12:57:46;14.02;;;6.97;;
5752;SDS011;2901;42.140;24.760;2023-04-03T13:00:19;10.77;;;9.88;;
5752;SDS011;2901;42.140;24.760;2023-04-03T13:02:53;13.65;;;11.20;;
5752;SDS011;2901;42.140;24.760;2023-04-03T13:05:19;15.45;;;11.65;;
5752;SDS011;2901;42.140;24.760;2023-04-03T13:07:52;14.45;;;12.45;;
5752;SDS011;2901;42.140;24.760;2023-04-03T13:10:22;11.90;;;10.75;;
5752;SDS011;2901;42.140;24.760;2023-04-03T13:12:49;13.23;;;11.63;;
5752;SDS011;2901;42.140;24.760;2023-04-03T13:17:49;14.38;;;10.70;;
5752;SDS011;2901;42.140;24.760;2023-04-03T13:20:20;13.05;;;10.50;;
5752;SDS011;2901;42.140;24.760;2023-04-03T13:22:56;8.02;;;7.40;;
5752;SDS011;2901;42.140;24.760;2023-04-03T13:25:28;9.32;;;7.70;;
5752;SDS011;2901;42.140;24.760;2023-04-03T13:27:57;9.23;;;7.20;;
5752;SDS011;2901;42.140;24.760;2023-04-03T13:30:25;8.07;;;7.25;;
5752;SDS011;2901;42.140;24.760;2023-04-03T13:32:55;7.63;;;7.03;;
5752;SDS011;2901;42.140;24.760;2023-04-03T13:35:36;7.45;;;6.70;;
5752;SDS011;2901;42.140;24.760;2023-04-03T13:38:06;6.22;;;5.75;;
5752;SDS011;2901;42.140;24.760;2023-04-03T13:40:53;9.50;;;6.80;;
5752;SDS011;2901;42.140;24.760;2023-04-03T13:43:23;8.35;;;7.72;;
5752;SDS011;2901;42.140;24.760;2023-04-03T13:48:25;7.80;;;7.13;;
5752;SDS011;2901;42.140;24.760;2023-04-03T13:50:53;12.73;;;7.05;;
5752;SDS011;2901;42.140;24.760;2023-04-03T13:53:19;9.68;;;7.63;;
5752;SDS011;2901;42.140;24.760;2023-04-03T13:55:59;8.38;;;7.78;;
5752;SDS011;2901;42.140;24.760;2023-04-03T13:58:35;8.13;;;7.50;;
5752;SDS011;2901;42.140;24.760;2023-04-03T14:01:11;9.30;;;8.55;;
5752;SDS011;2901;42.140;24.760;2023-04-03T14:03:44;10.15;;;9.07;;
5752;SDS011;2901;42.140;24.760;2023-04-03T14:06:18;11.00;;;9.77;;
5752;SDS011;2901;42.140;24.760;2023-04-03T14:08:44;10.13;;;9.00;;
5752;SDS011;2901;42.140;24.760;2023-04-03T14:11:29;10.23;;;9.43;;
5752;SDS011;2901;42.140;24.760;2023-04-03T14:13:57;9.38;;;8.73;;
5752;SDS011;2901;42.140;24.760;2023-04-03T14:16:26;8.98;;;8.43;;
5752;SDS011;2901;42.140;24.760;2023-04-03T14:18:54;9.27;;;8.45;;
5752;SDS011;2901;42.140;24.760;2023-04-03T14:21:20;8.68;;;8.07;;
5752;SDS011;2901;42.140;24.760;2023-04-03T14:23:46;8.23;;;7.63;;
5752;SDS011;2901;42.140;24.760;2023-04-03T14:26:16;8.77;;;8.15;;
5752;SDS011;2901;42.140;24.760;2023-04-03T14:28:44;7.75;;;7.32;;
5752;SDS011;2901;42.140;24.760;2023-04-03T14:31:12;8.48;;;7.82;;
5752;SDS011;2901;42.140;24.760;2023-04-03T14:33:38;8.30;;;7.80;;
5752;SDS011;2901;42.140;24.760;2023-04-03T14:38:57;9.40;;;8.55;;
5752;SDS011;2901;42.140;24.760;2023-04-03T14:41:24;9.88;;;8.95;;
5752;SDS011;2901;42.140;24.760;2023-04-03T14:43:51;11.38;;;10.48;;
5752;SDS011;2901;42.140;24.760;2023-04-03T14:46:19;10.50;;;9.80;;
5752;SDS011;2901;42.140;24.760;2023-04-03T14:48:56;11.82;;;10.57;;
5752;SDS011;2901;42.140;24.760;2023-04-03T14:51:22;16.35;;;11.90;;
5752;SDS011;2901;42.140;24.760;2023-04-03T14:53:47;13.35;;;11.95;;
5752;SDS011;2901;42.140;24.760;2023-04-03T14:56:16;14.65;;;11.63;;
5752;SDS011;2901;42.140;24.760;2023-04-03T14:58:42;14.43;;;11.90;;
5752;SDS011;2901;42.140;24.760;2023-04-03T15:01:11;13.20;;;11.77;;
5752;SDS011;2901;42.140;24.760;2023-04-03T15:03:38;16.05;;;14.10;;
5752;SDS011;2901;42.140;24.760;2023-04-03T15:06:04;20.83;;;13.63;;
5752;SDS011;2901;42.140;24.760;2023-04-03T15:08:29;17.85;;;13.65;;
5752;SDS011;2901;42.140;24.760;2023-04-03T15:10:55;17.27;;;14.18;;
5752;SDS011;2901;42.140;24.760;2023-04-03T15:13:22;16.63;;;13.93;;
5752;SDS011;2901;42.140;24.760;2023-04-03T15:15:48;17.52;;;15.05;;
5752;SDS011;2901;42.140;24.760;2023-04-03T15:18:16;17.02;;;15.00;;
5752;SDS011;2901;42.140;24.760;2023-04-03T15:20:44;19.95;;;15.23;;
5752;SDS011;2901;42.140;24.760;2023-04-03T15:23:12;14.75;;;13.30;;
5752;SDS011;2901;42.140;24.760;2023-04-03T15:25:38;14.57;;;12.98;;
5752;SDS011;2901;42.140;24.760;2023-04-03T15:28:04;16.35;;;14.07;;
5752;SDS011;2901;42.140;24.760;2023-04-03T15:30:30;18.67;;;13.13;;
5752;SDS011;2901;42.140;24.760;2023-04-03T15:32:56;14.15;;;12.90;;
5752;SDS011;2901;42.140;24.760;2023-04-03T15:35:21;14.35;;;12.63;;
5752;SDS011;2901;42.140;24.760;2023-04-03T15:37:47;20.50;;;12.18;;
5752;SDS011;2901;42.140;24.760;2023-04-03T15:40:13;14.98;;;11.07;;
5752;SDS011;2901;42.140;24.760;2023-04-03T15:42:39;9.68;;;8.80;;
5752;SDS011;2901;42.140;24.760;2023-04-03T15:45:05;13.98;;;8.35;;
5752;SDS011;2901;42.140;24.760;2023-04-03T15:47:31;11.40;;;6.25;;
5752;SDS011;2901;42.140;24.760;2023-04-03T15:49:57;8.43;;;6.13;;
5752;SDS011;2901;42.140;24.760;2023-04-03T15:52:23;6.70;;;6.03;;
5752;SDS011;2901;42.140;24.760;2023-04-03T15:54:48;7.30;;;6.50;;
5752;SDS011;2901;42.140;24.760;2023-04-03T15:57:14;7.03;;;6.47;;
5752;SDS011;2901;42.140;24.760;2023-04-03T15:59:39;11.32;;;9.75;;
5752;SDS011;2901;42.140;24.760;2023-04-03T16:02:05;14.15;;;6.13;;
5752;SDS011;2901;42.140;24.760;2023-04-03T16:04:35;6.47;;;6.07;;
5752;SDS011;2901;42.140;24.760;2023-04-03T16:07:01;7.13;;;6.50;;
5752;SDS011;2901;42.140;24.760;2023-04-03T16:09:28;7.28;;;6.55;;
5752;SDS011;2901;42.140;24.760;2023-04-03T16:11:53;10.30;;;5.68;;
5752;SDS011;2901;42.140;24.760;2023-04-03T16:14:19;8.95;;;6.28;;
5752;SDS011;2901;42.140;24.760;2023-04-03T16:16:44;9.95;;;7.57;;
5752;SDS011;2901;42.140;24.760;2023-04-03T16:19:09;8.25;;;6.80;;
5752;SDS011;2901;42.140;24.760;2023-04-03T16:21:35;8.48;;;7.72;;
5752;SDS011;2901;42.140;24.760;2023-04-03T16:24:01;11.52;;;8.02;;
5752;SDS011;2901;42.140;24.760;2023-04-03T16:26:27;8.85;;;8.00;;
5752;SDS011;2901;42.140;24.760;2023-04-03T16:28:52;11.18;;;8.07;;
5752;SDS011;2901;42.140;24.760;2023-04-03T16:31:19;14.18;;;9.32;;
5752;SDS011;2901;42.140;24.760;2023-04-03T16:33:45;10.98;;;8.98;;
5752;SDS011;2901;42.140;24.760;2023-04-03T16:36:11;13.15;;;10.23;;
5752;SDS011;2901;42.140;24.760;2023-04-03T16:38:36;11.68;;;10.02;;
5752;SDS011;2901;42.140;24.760;2023-04-03T16:41:01;17.95;;;9.90;;
5752;SDS011;2901;42.140;24.760;2023-04-03T16:43:30;12.02;;;10.75;;
5752;SDS011;2901;42.140;24.760;2023-04-03T16:45:56;13.52;;;11.68;;
5752;SDS011;2901;42.140;24.760;2023-04-03T16:48:22;17.10;;;11.50;;
5752;SDS011;2901;42.140;24.760;2023-04-03T16:50:47;12.57;;;11.23;;